Saturday, November 17, 2018, 10:42 AM EST
Back to Local

KMFV, Melfa / Accomack Airport

Location: Melfa, VA, United States Lat: 37.65
Local Time: 10:42 AM EST (15:42 GMT) Lon: -75.767
Time Zone: US/Eastern Elev: 49 ft

Show me the last for .
Show Coded

Time T Td Feel RH Dir Speed Gust Alt SLP Vis Weather Sky Remarks
2018-11-17 10:15 48 35 44 61 360° 8 - 30.29 - 10 SCT028 None
2018-11-17 09:55 47 35 40 62 350° 14 20 30.29 - 10 SCT028 None
2018-11-17 09:35 47 35 44 62 340° 7 - 30.29 - 10 CLR None
2018-11-17 09:15 46 35 42 65 350° 7 - 30.29 - 10 CLR None
2018-11-17 08:55 46 35 43 66 340° 5 - 30.29 - 10 CLR None
2018-11-17 08:35 46 36 41 68 360° 9 - 30.28 - 10 CLR None
2018-11-17 08:15 45 36 41 70 360° 7 - 30.28 - 10 CLR None
2018-11-17 07:55 43 36 40 74 10° 6 - 30.27 - 10 CLR None
2018-11-17 07:35 42 36 39 78 360° 5 - 30.25 - 10 SCT002 None
2018-11-17 07:15 40 36 37 82 10° 5 - 30.24 - 10 CLR None
2018-11-17 06:55 40 35 36 83 10° 6 - 30.23 - 10 CLR 6-hr Min Temp (7am): 34.5°F
6-hr Max Temp (7am): 41.9°F
2018-11-17 06:35 37 35 32 91 360° 6 - 30.22 - 10 CLR None
2018-11-17 06:15 36 34 31 95 360° 6 - 30.21 - 10 CLR None
2018-11-17 05:55 35 34 30 95 360° 6 - 30.20 - 10 CLR None
2018-11-17 05:35 35 34 31 95 10° 5 - 30.19 - 10 CLR None
2018-11-17 05:15 35 34 33 95 20° 3 - 30.18 - 10 CLR None
2018-11-17 04:55 37 35 34 93 20° 3 - 30.17 - 10 CLR None
2018-11-17 04:35 37 34 - 89 - Calm - 30.16 - 10 CLR None
2018-11-17 04:15 42 36 39 78 10° 5 - 30.15 - 10 CLR None
2018-11-17 03:55 42 36 39 79 360° 5 - 30.15 - 10 CLR None
2018-11-17 03:35 42 37 37 82 10° 7 - 30.15 - 10 CLR None
2018-11-17 03:15 37 36 33 94 350° 6 - 30.15 - 10 CLR None
2018-11-17 02:55 37 35 34 92 10° 3 - 30.14 - 10 CLR None
2018-11-17 02:35 40 37 38 88 20° 3 - 30.14 - 10 CLR None
2018-11-17 02:15 42 37 40 85 30° 3 - 30.13 - 10 CLR None
2018-11-17 01:55 40 37 37 88 20° 5 - 30.12 - 10 CLR None
2018-11-17 01:35 40 38 36 91 10° 6 - 30.12 - 10 CLR None
2018-11-17 01:15 40 38 - 91 - Calm - 30.11 - 10 CLR None
2018-11-17 00:55 41 37 - 85 - Calm - 30.11 - 10 CLR 6-hr Min Temp (1am): 41.2°F
6-hr Max Temp (1am): 49.5°F
2018-11-17 00:35 44 38 42 78 20° 3 - 30.10 - 10 CLR None
2018-11-17 00:15 45 38 42 76 20° 6 - 30.10 - 10 CLR None
2018-11-16 23:55 46 39 41 76 350° 8 - 30.10 - 10 CLR 24-hr Min Temp (12am): 41.0°F
24-hr Max Temp (12am): 53.4°F
2018-11-16 23:35 46 39 43 76 320° 6 - 30.09 - 10 CLR None
2018-11-16 23:15 47 38 45 69 280° 5 - 30.08 - 10 CLR None
2018-11-16 22:55 47 38 45 69 280° 6 - 30.07 - 10 CLR None
2018-11-16 22:35 49 38 45 67 280° 7 - 30.07 - 10 CLR None
2018-11-16 22:15 48 38 45 67 280° 7 - 30.07 - 10 CLR None
2018-11-16 21:55 48 38 45 66 280° 7 - 30.06 - 10 CLR None
2018-11-16 21:35 48 38 45 66 270° 7 - 30.05 - 10 CLR None
2018-11-16 21:15 48 38 45 69 280° 6 - 30.04 - 10 CLR None
2018-11-16 20:55 49 38 45 66 280° 7 - 30.04 - 10 CLR None
2018-11-16 20:35 49 38 45 65 270° 7 - 30.03 - 10 CLR None
2018-11-16 20:15 49 37 45 64 270° 8 - 30.02 - 10 CLR None
2018-11-16 19:55 49 37 43 64 270° 10 16 30.02 - 10 CLR None
2018-11-16 19:35 49 37 46 63 260° 7 - 30.01 - 10 CLR None
2018-11-16 19:15 49 37 45 62 270° 9 - 30.00 - 10 CLR None
2018-11-16 18:55 49 37 45 62 280° 10 - 29.99 - 10 CLR 6-hr Min Temp (7pm): 48.7°F
6-hr Max Temp (7pm): 53.4°F
2018-11-16 18:35 49 37 46 64 270° 7 - 29.99 - 10 CLR None
2018-11-16 18:15 49 37 46 63 260° 8 - 29.97 - 10 CLR None
2018-11-16 17:55 50 37 46 61 270° 9 - 29.97 - 10 CLR None
2018-11-16 17:35 50 38 46 63 260° 9 - 29.96 - 10 CLR None
2018-11-16 17:15 50 38 46 62 280° 9 - 29.95 - 10 CLR None
2018-11-16 16:55 51 38 - 61 270° 9 - 29.94 - 10 CLR None
2018-11-16 16:35 52 38 - 59 270° 10 - 29.94 - 10 CLR None
2018-11-16 16:15 53 38 - 57 280° 12 - 29.93 - 10 CLR None
2018-11-16 15:55 53 38 - 56 270° 9 17 29.92 - 10 CLR None
2018-11-16 15:35 53 37 - 55 280° 13 21 29.91 - 10 CLR None
2018-11-16 15:15 53 39 - 58 270° 7 - 29.91 - 10 CLR None
2018-11-16 14:55 53 38 - 57 260° 13 17 29.91 - 10 CLR None
2018-11-16 14:35 53 38 - 57 290° 15 23 29.91 - 10 CLR None
2018-11-16 14:15 52 37 - 57 270° 16 22 29.90 - 10 CLR None
2018-11-16 13:55 52 37 - 56 280° 13 18 29.89 - 10 CLR None
2018-11-16 13:35 53 37 - 55 260° 16 21 29.90 - 10 CLR None
2018-11-16 13:15 52 37 - 57 260° 17 25 29.91 - 10 CLR None
2018-11-16 12:55 51 37 - 58 270° 13 22 29.91 - 10 CLR 6-hr Min Temp (1pm): 43.0°F
6-hr Max Temp (1pm): 51.8°F
2018-11-16 12:35 51 37 - 58 270° 13 22 29.92 - 10 CLR None
2018-11-16 12:15 51 37 - 59 270° 12 23 29.91 - 10 CLR None
2018-11-16 11:55 51 37 - 60 270° 15 21 29.92 - 10 CLR None
2018-11-16 11:35 51 38 - 61 280° 14 21 29.92 - 10 CLR None
2018-11-16 11:15 50 37 43 61 260° 12 22 29.92 - 10 CLR None
2018-11-16 10:55 49 37 42 62 270° 14 24 29.92 - 10 CLR None

Support USWX by starting your Amazon purchase here.